Terminal Aerodrome Forecast
Issued by NWS

Current Version | Previous Version | Graphics & Text | Print | Product List | Glossary On
Versions: 1 2 3 4 5 6 7 8 9 10 11 12 13 14 15 16 17 18 19 20 21 22
000
FTUS41 KILN 241900 AAA
TAFLCK
TAF AMD
KLCK 241946Z 2420/2518 24012KT P6SM OVC025
      TEMPO 2420/2423 BKN015 OVC025
     FM242300 24007KT P6SM SCT012 BKN035
      TEMPO 2423/2503 5SM BR BKN015
     FM250300 23006KT P6SM SCT020 BKN150
      TEMPO 2505/2509 BKN020
     FM250900 13006KT P6SM OVC018
      TEMPO 2509/2513 09005KT 5SM BR BKN020 OVC100
     FM251400 12004KT P6SM BKN025 OVC050
      TEMPO 2517/2518 5SM -RA OVC040=

USA.gov is the U.S. government's official web portal to all federal, state and local government web resources and services.